Weather reports worldwide

Advertisment
Albacete, Spain (8279): temperature & dewpoint: 12.01.2018 07:00:00 - 18.01.2018 07:00:00 (CET)Albacete, Spain (8279): wind speed & gusts: 12.01.2018 07:00:00 - 18.01.2018 07:00:00 (CET)Albacete, Spain (8279): wind direction: 12.01.2018 07:00:00 - 18.01.2018 07:00:00 (CET)Albacete, Spain (8279): reduced air pressure: 12.01.2018 07:00:00 - 18.01.2018 07:00:00 (CET)Albacete, Spain (8279): precipitation: 12.01.2018 07:00:00 - 18.01.2018 07:00:00 (CET)
Date & Time tt [°C] td [°C] ff [km/h] ff [kn] fx [km/h] fx [kn] dd ppp [hPa] rr [mm]
18.01.2018 07:00:00 - - - - - - - - -
18.01.2018 06:00:00 0,2 -0,3 0 0 0 0 N 1028,0 0,0
18.01.2018 05:00:00 0,7 0,2 0 0 5 3 N 1028,0 0,0
18.01.2018 04:00:00 0,9 0,0 0 0 4 2 ENE 1028,4 0,0
18.01.2018 03:00:00 1,1 0,0 0 0 0 0 N 1028,1 0,0
18.01.2018 02:00:00 1,9 0,4 0 0 0 0 N 1027,8 0,0
18.01.2018 01:00:00 2,9 1,1 0 0 0 0 N 1027,8 -
18.01.2018 00:00:00 4,0 2,1 1 1 5 3 SSW 1027,6 0,0
17.01.2018 23:00:00 4,9 1,7 0 0 5 3 N 1027,1 0,0
17.01.2018 22:00:00 6,2 2,3 3 1 8 4 WSW 1026,8 0,0
17.01.2018 21:00:00 6,8 2,7 3 2 15 8 SSW 1026,3 0,0
17.01.2018 20:00:00 8,2 3,0 8 4 - - W 1025,5 -
17.01.2018 19:00:00 9,8 3,0 5 3 16 9 WSW 1024,9 -
17.01.2018 18:00:00 11,4 2,5 6 4 18 10 W 1023,9 0,0
17.01.2018 17:00:00 13,7 2,7 9 5 23 12 W 1022,7 0,0
17.01.2018 16:00:00 14,4 4,1 8 4 24 13 W 1022,5 0,0
17.01.2018 15:00:00 13,7 4,3 9 5 22 12 W 1022,8 0,0
17.01.2018 14:00:00 12,2 4,6 9 5 26 14 W 1024,0 0,0
17.01.2018 13:00:00 9,1 5,0 9 5 22 12 W 1025,9 -
17.01.2018 12:00:00 6,6 5,5 6 3 26 14 WNW 1027,4 0,0
17.01.2018 11:00:00 6,0 5,6 6 4 23 12 W 1027,3 0,0
17.01.2018 10:00:00 5,7 5,6 5 3 27 15 W 1026,8 0,0
17.01.2018 09:00:00 5,7 5,6 9 5 28 15 W 1026,4 0,0
17.01.2018 08:00:00 5,6 5,3 6 3 16 9 W 1026,5 0,0
17.01.2018 07:00:00 5,6 5,5 7 4 22 12 W 1026,1 -
17.01.2018 06:00:00 6,1 5,8 7 4 21 12 W 1025,8 0,0
17.01.2018 05:00:00 5,8 5,1 9 5 21 11 W 1025,8 0,0
17.01.2018 04:00:00 4,2 3,2 0 0 10 5 SSW 1026,9 0,0
17.01.2018 03:00:00 3,4 2,5 1 1 9 5 WNW 1027,8 0,0
17.01.2018 02:00:00 2,9 1,5 0 0 4 2 WNW 1028,1 0,0
17.01.2018 01:00:00 3,7 1,9 0 0 8 4 N 1028,5 -
17.01.2018 00:00:00 4,6 3,0 0 0 4 2 W 1028,2 0,0
16.01.2018 23:00:00 4,8 2,7 0 0 0 0 N 1028,6 0,0
16.01.2018 22:00:00 6,0 2,5 0 0 3 1 N 1028,7 0,0
16.01.2018 21:00:00 7,5 2,9 0 0 8 4 WNW 1027,9 0,0
16.01.2018 20:00:00 8,7 2,5 2 1 12 6 WSW 1027,7 0,0
16.01.2018 19:00:00 10,2 2,1 5 3 21 11 WSW 1026,9 -
16.01.2018 18:00:00 11,9 2,3 9 5 29 16 W 1026,0 0,0
16.01.2018 17:00:00 13,7 3,2 14 7 27 15 W 1025,2 0,0
16.01.2018 16:00:00 15,0 4,1 8 5 30 16 W 1025,0 0,0
16.01.2018 15:00:00 14,3 3,0 9 5 29 16 W 1025,4 0,0
16.01.2018 14:00:00 13,7 3,2 11 6 29 16 W 1026,5 0,0
16.01.2018 13:00:00 12,4 1,5 8 5 25 14 WNW 1028,0 -
16.01.2018 12:00:00 10,0 2,7 7 4 17 9 W 1029,7 0,0
16.01.2018 11:00:00 4,4 1,9 1 1 7 4 N 1031,5 0,0
16.01.2018 10:00:00 2,0 1,1 1 0 9 5 N 1032,0 0,0
16.01.2018 09:00:00 0,3 0,0 0 0 4 2 W 1032,0 0,0
16.01.2018 08:00:00 -0,2 -1,0 0 0 0 0 N 1031,7 0,0
16.01.2018 07:00:00 0,2 -1,0 0 0 3 1 N 1031,3 -
16.01.2018 06:00:00 1,0 -0,5 1 0 9 5 W 1030,8 0,0
16.01.2018 05:00:00 1,8 0,2 3 1 9 5 W 1030,8 0,0
16.01.2018 04:00:00 0,9 -0,5 0 0 0 0 N 1030,9 0,0
16.01.2018 03:00:00 1,9 0,0 0 0 7 4 WSW 1030,8 0,0
16.01.2018 02:00:00 2,3 0,4 1 1 8 4 W 1030,8 0,0
16.01.2018 01:00:00 2,5 0,6 1 1 9 5 WSW 1031,3 -
16.01.2018 00:00:00 2,7 0,4 3 1 11 6 WSW 1031,2 0,0
15.01.2018 23:00:00 3,4 0,9 5 3 13 7 WSW 1031,1 0,0
15.01.2018 22:00:00 3,6 0,6 6 3 18 10 WSW 1030,4 0,0
15.01.2018 21:00:00 4,5 0,2 9 5 18 10 W 1030,2 0,0
15.01.2018 20:00:00 5,5 0,4 9 5 18 10 W 1029,0 0,0
15.01.2018 19:00:00 6,5 0,2 5 3 15 8 W 1028,1 -
15.01.2018 18:00:00 8,0 0,0 6 3 20 11 W 1026,4 0,0
15.01.2018 17:00:00 10,0 -0,5 6 4 15 8 W 1025,8 0,0
15.01.2018 16:00:00 10,6 -0,3 5 3 15 8 W 1025,3 0,0
15.01.2018 15:00:00 10,2 0,2 4 2 16 8 W 1025,3 0,0
15.01.2018 14:00:00 9,0 0,6 6 3 14 8 W 1025,9 0,0
15.01.2018 13:00:00 8,2 0,9 4 2 11 6 WNW 1026,9 -
15.01.2018 12:00:00 6,8 0,6 3 2 11 6 W 1027,5 0,0
15.01.2018 11:00:00 4,3 1,1 3 2 11 6 WNW 1027,6 0,0
15.01.2018 10:00:00 0,9 0,0 0 0 1 1 W 1028,3 0,0
15.01.2018 09:00:00 0,2 -0,7 0 0 5 3 N 1027,5 0,0
15.01.2018 08:00:00 0,2 -0,7 0 0 5 3 W 1027,0 0,0
15.01.2018 07:00:00 0,4 -0,5 0 0 5 3 W 1026,1 -
15.01.2018 06:00:00 0,5 -0,7 2 1 5 3 WSW 1025,5 0,0
15.01.2018 05:00:00 1,7 0,2 0 0 4 2 W 1024,4 0,0
15.01.2018 04:00:00 2,5 0,9 0 0 0 0 N 1023,6 0,0
15.01.2018 03:00:00 2,8 0,9 0 0 5 3 N 1023,2 0,0
15.01.2018 02:00:00 2,9 0,9 0 0 0 0 N 1022,8 0,0
15.01.2018 01:00:00 3,2 1,3 0 0 4 2 N 1022,9 -
15.01.2018 00:00:00 3,4 1,5 0 0 6 3 N 1022,4 0,0
14.01.2018 23:00:00 4,1 1,9 1 0 6 3 W 1021,9 0,0
14.01.2018 22:00:00 4,8 2,7 0 0 6 4 W 1020,9 0,0
14.01.2018 21:00:00 5,0 2,9 0 0 0 0 N 1020,4 0,0
14.01.2018 20:00:00 5,3 2,3 0 0 0 0 N 1019,6 0,0
14.01.2018 19:00:00 5,7 1,9 0 0 5 3 N 1019,0 -
14.01.2018 18:00:00 6,5 1,5 3 2 8 5 W 1018,5 0,0
14.01.2018 17:00:00 6,9 1,3 1 1 11 6 W 1018,2 0,0
14.01.2018 16:00:00 7,2 2,1 4 2 13 7 WNW 1017,6 0,0
14.01.2018 15:00:00 7,4 2,9 5 3 17 9 WNW 1017,5 0,0
14.01.2018 14:00:00 6,0 3,9 1 1 11 6 W 1018,3 0,9
14.01.2018 13:00:00 6,1 2,5 3 2 23 12 NW 1019,5 -
14.01.2018 12:00:00 6,6 2,9 7 4 21 11 W 1019,7 0,0
14.01.2018 11:00:00 5,7 3,9 4 2 11 6 W 1020,4 0,2
14.01.2018 10:00:00 4,4 3,0 6 3 14 7 W 1020,7 0,0
14.01.2018 09:00:00 4,1 3,0 1 0 10 5 WSW 1020,0 0,0
14.01.2018 08:00:00 4,2 3,2 3 1 8 4 WSW 1020,0 0,0
14.01.2018 07:00:00 4,2 3,2 1 0 12 7 WSW 1019,8 -
14.01.2018 06:00:00 4,3 2,9 0 0 6 3 WSW 1019,8 0,0
14.01.2018 05:00:00 4,3 2,5 0 0 8 4 N 1019,9 0,0
14.01.2018 04:00:00 4,4 2,5 4 2 18 10 W 1020,2 0,0
14.01.2018 03:00:00 4,2 2,3 6 4 18 10 W 1020,4 0,0
14.01.2018 02:00:00 3,7 1,9 6 4 24 13 W 1020,4 0,0
14.01.2018 01:00:00 4,7 2,5 10 5 34 18 W 1020,0 -
14.01.2018 00:00:00 6,1 2,9 12 7 28 15 W 1019,7 0,0
13.01.2018 23:00:00 6,5 2,5 9 5 28 15 W 1019,2 0,0
13.01.2018 22:00:00 6,5 2,5 8 4 24 13 W 1018,8 0,0
13.01.2018 21:00:00 6,1 2,3 9 5 25 14 SW 1019,1 0,0
13.01.2018 20:00:00 6,7 2,1 11 6 29 16 WSW 1018,5 0,0
13.01.2018 19:00:00 7,2 1,9 8 4 23 12 WSW 1017,9 -
13.01.2018 18:00:00 7,3 0,2 9 5 36 20 WSW 1018,0 0,0
13.01.2018 17:00:00 9,2 -3,0 11 6 27 15 WSW 1017,7 0,0
13.01.2018 16:00:00 10,4 -3,3 10 5 26 14 WSW 1016,8 0,0
13.01.2018 15:00:00 10,6 -1,7 6 3 17 9 WSW 1017,0 0,0
13.01.2018 14:00:00 8,6 -0,7 3 2 16 9 SSW 1018,2 0,0
13.01.2018 13:00:00 8,0 -1,0 3 2 14 8 SSW 1019,2 -
13.01.2018 12:00:00 7,3 0,0 3 1 14 7 SE 1020,3 0,0
13.01.2018 11:00:00 3,5 2,1 3 2 9 5 ENE 1021,6 0,0
13.01.2018 10:00:00 0,6 0,0 5 3 10 6 E 1022,6 0,0
13.01.2018 09:00:00 -0,3 -0,7 0 0 5 3 E 1023,1 0,0
13.01.2018 08:00:00 -0,4 -0,7 0 0 5 3 ENE 1022,4 0,0
13.01.2018 07:00:00 -0,7 -1,2 0 0 2 1 N 1023,0 -
13.01.2018 06:00:00 -0,3 -1,0 0 0 6 3 N 1023,4 0,0
13.01.2018 05:00:00 0,1 -0,7 0 0 0 0 N 1023,6 0,0
13.01.2018 04:00:00 0,8 -0,5 0 0 4 2 S 1024,0 0,0
13.01.2018 03:00:00 1,6 0,0 0 0 0 0 N 1024,2 0,0
13.01.2018 02:00:00 2,4 0,6 0 0 3 2 N 1024,5 0,0
13.01.2018 01:00:00 2,5 0,2 0 0 4 2 E 1025,5 -
13.01.2018 00:00:00 3,9 1,1 1 0 9 5 SSW 1025,4 0,0
12.01.2018 23:00:00 4,2 1,5 0 0 9 5 SSW 1025,7 0,0
12.01.2018 22:00:00 4,0 0,9 0 0 6 3 N 1025,7 0,0
12.01.2018 21:00:00 4,6 0,6 0 0 4 2 N 1025,6 0,0
12.01.2018 20:00:00 5,4 0,0 0 0 9 5 N 1025,3 0,0
12.01.2018 19:00:00 6,6 -0,3 3 2 11 6 W 1025,0 -
12.01.2018 18:00:00 7,7 -1,0 3 2 16 9 W 1024,2 0,0
12.01.2018 17:00:00 9,0 -1,7 5 3 26 14 W 1023,9 0,0
12.01.2018 16:00:00 9,8 -0,5 8 4 24 13 W 1023,5 0,0
12.01.2018 15:00:00 9,8 -0,3 10 5 31 17 WNW 1023,9 0,0
12.01.2018 14:00:00 9,3 0,2 10 6 28 15 W 1024,3 0,0
12.01.2018 13:00:00 8,3 1,1 9 5 26 14 W 1026,0 -
12.01.2018 12:00:00 6,6 0,4 12 6 31 17 W 1027,0 0,0
12.01.2018 11:00:00 4,3 0,0 8 4 21 12 W 1027,6 0,0
12.01.2018 10:00:00 1,6 -0,7 6 3 16 9 W 1028,2 0,0
12.01.2018 09:00:00 0,3 -1,7 5 3 19 11 W 1028,2 0,0
12.01.2018 08:00:00 0,5 -2,0 7 4 24 13 W 1027,8 0,0
12.01.2018 07:00:00 1,3 -1,7 8 5 24 13 W 1027,0 -

tt = temperature
td = dewpoint
ff = wind speed
fx = gusts
dd = wind direction
ppp = reduced air pressure
rr = precipitation

Next stations